sensor_id;sensor_type;location;lat;lon;timestamp;pressure;altitude;pressure_sealevel;temperature;humidity
77112;BME280;66064;50.226;14.344;2024-02-21T00:01:08;100249.31;;;7.30;81.71
77112;BME280;66064;50.226;14.344;2024-02-21T00:03:45;100243.97;;;7.29;81.23
77112;BME280;66064;50.226;14.344;2024-02-21T00:06:12;100226.16;;;7.25;81.08
77112;BME280;66064;50.226;14.344;2024-02-21T00:08:39;100223.47;;;7.23;81.50
77112;BME280;66064;50.226;14.344;2024-02-21T00:11:05;100239.44;;;7.26;81.74
77112;BME280;66064;50.226;14.344;2024-02-21T00:13:31;100220.75;;;7.22;81.63
77112;BME280;66064;50.226;14.344;2024-02-21T00:15:57;100217.25;;;7.23;82.61
77112;BME280;66064;50.226;14.344;2024-02-21T00:18:26;100223.03;;;7.11;82.40
77112;BME280;66064;50.226;14.344;2024-02-21T00:20:52;100219.16;;;7.01;83.60
77112;BME280;66064;50.226;14.344;2024-02-21T00:23:18;100215.31;;;6.92;84.35
77112;BME280;66064;50.226;14.344;2024-02-21T00:25:44;100205.41;;;6.86;84.48
77112;BME280;66064;50.226;14.344;2024-02-21T00:28:10;100212.38;;;6.84;84.76
77112;BME280;66064;50.226;14.344;2024-02-21T00:30:37;100208.69;;;6.79;86.47
77112;BME280;66064;50.226;14.344;2024-02-21T00:33:04;100198.78;;;6.74;85.67
77112;BME280;66064;50.226;14.344;2024-02-21T00:35:30;100201.44;;;6.74;85.77
77112;BME280;66064;50.226;14.344;2024-02-21T00:37:57;100185.50;;;6.72;85.68
77112;BME280;66064;50.226;14.344;2024-02-21T00:40:25;100202.09;;;6.68;86.23
77112;BME280;66064;50.226;14.344;2024-02-21T00:42:51;100192.28;;;6.64;85.26
77112;BME280;66064;50.226;14.344;2024-02-21T00:45:17;100193.06;;;6.61;86.29
77112;BME280;66064;50.226;14.344;2024-02-21T00:47:43;100190.47;;;6.63;86.28
77112;BME280;66064;50.226;14.344;2024-02-21T00:50:09;100180.50;;;6.56;86.13
77112;BME280;66064;50.226;14.344;2024-02-21T00:52:36;100184.06;;;6.56;86.57
77112;BME280;66064;50.226;14.344;2024-02-21T00:55:02;100197.09;;;6.52;86.62
77112;BME280;66064;50.226;14.344;2024-02-21T00:57:28;100184.84;;;6.54;86.95
77112;BME280;66064;50.226;14.344;2024-02-21T00:59:54;100185.41;;;6.45;86.96
77112;BME280;66064;50.226;14.344;2024-02-21T01:02:20;100179.91;;;6.39;87.13
77112;BME280;66064;50.226;14.344;2024-02-21T01:04:46;100179.84;;;6.38;87.51
77112;BME280;66064;50.226;14.344;2024-02-21T01:07:12;100171.91;;;6.38;87.63
77112;BME280;66064;50.226;14.344;2024-02-21T01:09:38;100175.38;;;6.37;87.75
77112;BME280;66064;50.226;14.344;2024-02-21T01:12:04;100172.13;;;6.44;87.24
77112;BME280;66064;50.226;14.344;2024-02-21T01:14:31;100167.06;;;6.50;87.21
77112;BME280;66064;50.226;14.344;2024-02-21T01:16:57;100158.19;;;6.48;87.10
77112;BME280;66064;50.226;14.344;2024-02-21T01:19:23;100154.78;;;6.52;87.18
77112;BME280;66064;50.226;14.344;2024-02-21T01:21:49;100154.06;;;6.56;86.73
77112;BME280;66064;50.226;14.344;2024-02-21T01:24:14;100155.69;;;6.52;86.28
77112;BME280;66064;50.226;14.344;2024-02-21T01:26:40;100156.47;;;6.50;86.79
77112;BME280;66064;50.226;14.344;2024-02-21T01:29:06;100154.91;;;6.55;86.32
77112;BME280;66064;50.226;14.344;2024-02-21T01:31:32;100151.19;;;6.50;87.02
77112;BME280;66064;50.226;14.344;2024-02-21T01:33:58;100156.41;;;6.47;87.27
77112;BME280;66064;50.226;14.344;2024-02-21T01:36:25;100144.13;;;6.49;87.26
77112;BME280;66064;50.226;14.344;2024-02-21T01:38:50;100141.44;;;6.47;87.17
77112;BME280;66064;50.226;14.344;2024-02-21T01:41:17;100129.06;;;6.46;86.98
77112;BME280;66064;50.226;14.344;2024-02-21T01:43:43;100131.84;;;6.51;86.81
77112;BME280;66064;50.226;14.344;2024-02-21T01:46:11;100124.97;;;6.56;86.57
77112;BME280;66064;50.226;14.344;2024-02-21T01:48:37;100109.00;;;6.53;86.70
77112;BME280;66064;50.226;14.344;2024-02-21T01:51:04;100125.94;;;6.58;86.28
77112;BME280;66064;50.226;14.344;2024-02-21T01:53:34;100128.47;;;6.55;87.40
77112;BME280;66064;50.226;14.344;2024-02-21T01:56:01;100116.19;;;6.57;87.16
77112;BME280;66064;50.226;14.344;2024-02-21T01:58:28;100080.44;;;6.43;87.46
77112;BME280;66064;50.226;14.344;2024-02-21T02:00:56;100114.63;;;6.62;86.58
77112;BME280;66064;50.226;14.344;2024-02-21T02:03:22;100095.88;;;6.56;87.01
77112;BME280;66064;50.226;14.344;2024-02-21T02:05:49;100105.84;;;6.63;86.71
77112;BME280;66064;50.226;14.344;2024-02-21T02:08:17;100102.34;;;6.64;86.31
77112;BME280;66064;50.226;14.344;2024-02-21T02:10:45;100110.19;;;6.61;87.26
77112;BME280;66064;50.226;14.344;2024-02-21T02:13:11;100100.56;;;6.63;86.68
77112;BME280;66064;50.226;14.344;2024-02-21T02:15:40;100104.22;;;6.68;86.75
77112;BME280;66064;50.226;14.344;2024-02-21T02:18:07;100095.28;;;6.63;87.33
77112;BME280;66064;50.226;14.344;2024-02-21T02:20:33;100093.66;;;6.68;87.00
77112;BME280;66064;50.226;14.344;2024-02-21T02:23:03;100085.72;;;6.68;86.75
77112;BME280;66064;50.226;14.344;2024-02-21T02:25:33;100085.78;;;6.70;87.24
77112;BME280;66064;50.226;14.344;2024-02-21T02:27:59;100090.16;;;6.69;86.88
77112;BME280;66064;50.226;14.344;2024-02-21T02:30:25;100085.03;;;6.74;86.92
77112;BME280;66064;50.226;14.344;2024-02-21T02:32:51;100081.28;;;6.67;87.44
77112;BME280;66064;50.226;14.344;2024-02-21T02:35:17;100081.28;;;6.67;87.52
77112;BME280;66064;50.226;14.344;2024-02-21T02:37:50;100066.97;;;6.60;87.60
77112;BME280;66064;50.226;14.344;2024-02-21T02:40:19;100051.94;;;6.59;87.45
77112;BME280;66064;50.226;14.344;2024-02-21T02:42:45;100063.59;;;6.66;87.39
77112;BME280;66064;50.226;14.344;2024-02-21T02:45:11;100057.28;;;6.61;87.53
77112;BME280;66064;50.226;14.344;2024-02-21T02:47:39;100056.75;;;6.71;87.43
77112;BME280;66064;50.226;14.344;2024-02-21T02:50:07;100054.16;;;6.73;86.96
77112;BME280;66064;50.226;14.344;2024-02-21T02:52:32;100045.16;;;6.67;87.04
77112;BME280;66064;50.226;14.344;2024-02-21T02:54:59;100045.16;;;6.67;87.78
77112;BME280;66064;50.226;14.344;2024-02-21T02:57:24;100054.09;;;6.71;87.13
77112;BME280;66064;50.226;14.344;2024-02-21T02:59:51;100034.44;;;6.63;87.43
77112;BME280;66064;50.226;14.344;2024-02-21T03:02:17;100045.25;;;6.71;87.53
77112;BME280;66064;50.226;14.344;2024-02-21T03:04:44;100036.25;;;6.64;87.76
77112;BME280;66064;50.226;14.344;2024-02-21T03:07:11;100030.00;;;6.62;87.67
77112;BME280;66064;50.226;14.344;2024-02-21T03:09:39;100037.28;;;6.69;87.94
77112;BME280;66064;50.226;14.344;2024-02-21T03:12:06;100048.63;;;6.66;87.46
77112;BME280;66064;50.226;14.344;2024-02-21T03:14:32;100030.00;;;6.62;88.38
77112;BME280;66064;50.226;14.344;2024-02-21T03:16:58;100039.97;;;6.71;88.01
77112;BME280;66064;50.226;14.344;2024-02-21T03:19:25;100035.47;;;6.68;88.05
77112;BME280;66064;50.226;14.344;2024-02-21T03:21:52;100022.97;;;6.62;88.18
77112;BME280;66064;50.226;14.344;2024-02-21T03:24:20;100041.78;;;6.72;88.09
77112;BME280;66064;50.226;14.344;2024-02-21T03:26:46;100039.38;;;6.79;87.99
77112;BME280;66064;50.226;14.344;2024-02-21T03:29:15;100028.50;;;6.70;88.05
77112;BME280;66064;50.226;14.344;2024-02-21T03:31:41;100018.47;;;6.60;88.32
77112;BME280;66064;50.226;14.344;2024-02-21T03:34:07;100023.09;;;6.67;88.32
77112;BME280;66064;50.226;14.344;2024-02-21T03:36:33;100014.09;;;6.60;88.45
77112;BME280;66064;50.226;14.344;2024-02-21T03:38:59;100014.25;;;6.65;88.43
77112;BME280;66064;50.226;14.344;2024-02-21T03:41:26;100024.66;;;6.60;88.92
77112;BME280;66064;50.226;14.344;2024-02-21T03:43:52;100020.00;;;6.53;88.47
77112;BME280;66064;50.226;14.344;2024-02-21T03:46:18;100019.94;;;6.52;89.43
77112;BME280;66064;50.226;14.344;2024-02-21T03:48:44;100008.41;;;6.48;88.84
77112;BME280;66064;50.226;14.344;2024-02-21T03:51:11;100020.78;;;6.51;89.22
77112;BME280;66064;50.226;14.344;2024-02-21T03:53:38;100021.63;;;6.48;89.61
77112;BME280;66064;50.226;14.344;2024-02-21T03:56:04;100023.41;;;6.49;89.88
77112;BME280;66064;50.226;14.344;2024-02-21T03:58:30;100013.47;;;6.42;89.49
77112;BME280;66064;50.226;14.344;2024-02-21T04:00:56;100008.34;;;6.47;89.52
77112;BME280;66064;50.226;14.344;2024-02-21T04:03:23;100022.59;;;6.52;90.30
77112;BME280;66064;50.226;14.344;2024-02-21T04:05:49;100024.19;;;6.47;89.89
77112;BME280;66064;50.226;14.344;2024-02-21T04:08:15;100022.41;;;6.46;90.61
77112;BME280;66064;50.226;14.344;2024-02-21T04:10:41;100020.28;;;6.36;90.57
77112;BME280;66064;50.226;14.344;2024-02-21T04:13:07;100021.13;;;6.35;90.84
77112;BME280;66064;50.226;14.344;2024-02-21T04:15:33;100017.56;;;6.32;90.43
77112;BME280;66064;50.226;14.344;2024-02-21T04:17:59;100016.66;;;6.33;90.60
77112;BME280;66064;50.226;14.344;2024-02-21T04:20:25;100011.81;;;6.20;91.05
77112;BME280;66064;50.226;14.344;2024-02-21T04:22:52;99993.19;;;6.16;91.23
77112;BME280;66064;50.226;14.344;2024-02-21T04:25:18;100005.56;;;6.18;91.32
77112;BME280;66064;50.226;14.344;2024-02-21T04:27:45;100000.25;;;6.17;91.14
77112;BME280;66064;50.226;14.344;2024-02-21T04:30:11;100000.25;;;6.17;91.69
77112;BME280;66064;50.226;14.344;2024-02-21T04:32:37;99995.78;;;6.14;91.27
77112;BME280;66064;50.226;14.344;2024-02-21T04:35:03;100005.16;;;6.06;91.65
77112;BME280;66064;50.226;14.344;2024-02-21T04:37:29;99996.50;;;6.10;92.15
77112;BME280;66064;50.226;14.344;2024-02-21T04:39:56;99999.75;;;6.03;92.36
77112;BME280;66064;50.226;14.344;2024-02-21T04:42:22;99976.63;;;5.96;92.33
77112;BME280;66064;50.226;14.344;2024-02-21T04:44:48;99978.44;;;5.97;92.35
77112;BME280;66064;50.226;14.344;2024-02-21T04:47:14;99992.59;;;5.99;92.43
77112;BME280;66064;50.226;14.344;2024-02-21T04:49:40;99996.63;;;6.13;92.55
77112;BME280;66064;50.226;14.344;2024-02-21T04:52:06;99990.09;;;6.04;92.47
77112;BME280;66064;50.226;14.344;2024-02-21T04:54:32;99994.69;;;6.09;91.79
77112;BME280;66064;50.226;14.344;2024-02-21T04:56:58;99991.84;;;6.03;91.89
77112;BME280;66064;50.226;14.344;2024-02-21T04:59:24;99992.44;;;5.94;92.53
77112;BME280;66064;50.226;14.344;2024-02-21T05:01:50;99989.72;;;5.93;92.66
77112;BME280;66064;50.226;14.344;2024-02-21T05:04:15;99988.75;;;5.91;93.04
77112;BME280;66064;50.226;14.344;2024-02-21T05:06:42;99978.91;;;5.87;92.96
77112;BME280;66064;50.226;14.344;2024-02-21T05:09:09;99986.72;;;5.84;93.55
77112;BME280;66064;50.226;14.344;2024-02-21T05:11:36;99983.47;;;5.91;93.52
77112;BME280;66064;50.226;14.344;2024-02-21T05:14:04;99980.06;;;5.93;93.16
77112;BME280;66064;50.226;14.344;2024-02-21T05:16:30;99972.66;;;5.85;93.08
77112;BME280;66064;50.226;14.344;2024-02-21T05:18:56;99970.13;;;5.88;92.54
77112;BME280;66064;50.226;14.344;2024-02-21T05:21:23;99980.91;;;5.92;93.16
77112;BME280;66064;50.226;14.344;2024-02-21T05:23:54;99974.03;;;5.97;93.32
77112;BME280;66064;50.226;14.344;2024-02-21T05:26:24;99981.81;;;5.93;92.74
77112;BME280;66064;50.226;14.344;2024-02-21T05:28:51;99973.81;;;5.91;92.92
77112;BME280;66064;50.226;14.344;2024-02-21T05:31:20;99974.09;;;5.99;92.96
77112;BME280;66064;50.226;14.344;2024-02-21T05:33:47;99981.13;;;5.99;92.92
77112;BME280;66064;50.226;14.344;2024-02-21T05:36:13;99963.19;;;5.90;93.11
77112;BME280;66064;50.226;14.344;2024-02-21T05:38:39;99964.47;;;6.01;92.61
77112;BME280;66064;50.226;14.344;2024-02-21T05:41:05;99959.09;;;5.98;92.84
77112;BME280;66064;50.226;14.344;2024-02-21T05:43:32;99969.41;;;6.17;92.42
77112;BME280;66064;50.226;14.344;2024-02-21T05:45:58;99964.06;;;6.14;92.24
77112;BME280;66064;50.226;14.344;2024-02-21T05:48:24;99960.81;;;6.23;91.60
77112;BME280;66064;50.226;14.344;2024-02-21T05:50:50;99952.94;;;6.24;91.06
77112;BME280;66064;50.226;14.344;2024-02-21T05:53:17;99960.25;;;6.31;91.38
77112;BME280;66064;50.226;14.344;2024-02-21T05:55:43;99940.47;;;6.20;91.04
77112;BME280;66064;50.226;14.344;2024-02-21T05:58:10;99946.88;;;6.27;91.38
77112;BME280;66064;50.226;14.344;2024-02-21T06:00:39;99952.31;;;6.31;91.44
77112;BME280;66064;50.226;14.344;2024-02-21T06:03:05;99949.50;;;6.27;90.50
77112;BME280;66064;50.226;14.344;2024-02-21T06:05:37;99961.53;;;6.44;90.35
77112;BME280;66064;50.226;14.344;2024-02-21T06:08:05;99937.34;;;6.32;90.63
77112;BME280;66064;50.226;14.344;2024-02-21T06:10:30;99955.34;;;6.44;90.36
77112;BME280;66064;50.226;14.344;2024-02-21T06:12:57;99954.41;;;6.42;90.98
77112;BME280;66064;50.226;14.344;2024-02-21T06:15:22;99955.34;;;6.44;91.21
77112;BME280;66064;50.226;14.344;2024-02-21T06:17:48;99939.50;;;6.44;91.15
77112;BME280;66064;50.226;14.344;2024-02-21T06:20:16;99948.28;;;6.43;90.54
77112;BME280;66064;50.226;14.344;2024-02-21T06:22:42;99952.03;;;6.51;91.56
77112;BME280;66064;50.226;14.344;2024-02-21T06:25:09;99949.59;;;6.57;90.28
77112;BME280;66064;50.226;14.344;2024-02-21T06:27:35;99954.16;;;6.61;89.35
77112;BME280;66064;50.226;14.344;2024-02-21T06:30:01;99943.69;;;6.64;90.26
77112;BME280;66064;50.226;14.344;2024-02-21T06:32:29;99933.59;;;6.79;89.73
77112;BME280;66064;50.226;14.344;2024-02-21T06:34:55;99943.44;;;6.85;88.43
77112;BME280;66064;50.226;14.344;2024-02-21T06:37:21;99935.56;;;6.86;89.65
77112;BME280;66064;50.226;14.344;2024-02-21T06:39:47;99938.34;;;6.91;87.72
77112;BME280;66064;50.226;14.344;2024-02-21T06:42:13;99946.50;;;6.98;88.76
77112;BME280;66064;50.226;14.344;2024-02-21T06:44:39;99935.97;;;7.00;87.35
77112;BME280;66064;50.226;14.344;2024-02-21T06:47:06;99926.22;;;6.99;87.38
77112;BME280;66064;50.226;14.344;2024-02-21T06:49:34;99925.84;;;7.15;86.26
77112;BME280;66064;50.226;14.344;2024-02-21T06:52:00;99923.13;;;7.12;86.43
77112;BME280;66064;50.226;14.344;2024-02-21T06:54:26;99917.88;;;7.14;86.67
77112;BME280;66064;50.226;14.344;2024-02-21T06:56:52;99921.59;;;7.20;86.41
77112;BME280;66064;50.226;14.344;2024-02-21T06:59:18;99910.09;;;7.20;85.89
77112;BME280;66064;50.226;14.344;2024-02-21T07:01:48;99917.28;;;7.24;86.39
77112;BME280;66064;50.226;14.344;2024-02-21T07:04:14;99911.09;;;7.23;86.38
77112;BME280;66064;50.226;14.344;2024-02-21T07:06:41;99908.50;;;7.25;85.81
77112;BME280;66064;50.226;14.344;2024-02-21T07:09:07;99895.41;;;7.29;86.38
77112;BME280;66064;50.226;14.344;2024-02-21T07:11:33;99909.91;;;7.44;86.19
77112;BME280;66064;50.226;14.344;2024-02-21T07:13:59;99907.38;;;7.48;86.26
77112;BME280;66064;50.226;14.344;2024-02-21T07:16:25;99916.19;;;7.47;86.12
77112;BME280;66064;50.226;14.344;2024-02-21T07:18:52;99918.34;;;7.60;85.99
77112;BME280;66064;50.226;14.344;2024-02-21T07:21:18;99915.94;;;7.69;84.30
77112;BME280;66064;50.226;14.344;2024-02-21T07:23:44;99911.66;;;7.75;84.62
77112;BME280;66064;50.226;14.344;2024-02-21T07:26:10;99917.00;;;7.76;85.28
77112;BME280;66064;50.226;14.344;2024-02-21T07:28:36;99918.91;;;7.82;85.28
77112;BME280;66064;50.226;14.344;2024-02-21T07:31:03;99909.25;;;7.84;84.18
77112;BME280;66064;50.226;14.344;2024-02-21T07:33:29;99920.97;;;7.92;83.72
77112;BME280;66064;50.226;14.344;2024-02-21T07:35:56;99937.63;;;7.88;85.46
77112;BME280;66064;50.226;14.344;2024-02-21T07:38:22;99921.41;;;7.76;84.17
77112;BME280;66064;50.226;14.344;2024-02-21T07:40:48;99920.97;;;7.92;82.26
77112;BME280;66064;50.226;14.344;2024-02-21T07:43:14;99921.91;;;7.94;83.55
77112;BME280;66064;50.226;14.344;2024-02-21T07:45:40;99917.38;;;7.90;81.40
77112;BME280;66064;50.226;14.344;2024-02-21T07:48:06;99920.97;;;7.92;83.59
77112;BME280;66064;50.226;14.344;2024-02-21T07:50:33;99917.50;;;7.96;81.58
77112;BME280;66064;50.226;14.344;2024-02-21T07:52:59;99920.09;;;7.93;83.04
77112;BME280;66064;50.226;14.344;2024-02-21T07:55:26;99925.81;;;8.08;82.86
77112;BME280;66064;50.226;14.344;2024-02-21T07:57:51;99921.47;;;8.12;82.31
77112;BME280;66064;50.226;14.344;2024-02-21T08:00:18;99929.44;;;8.13;82.40
77112;BME280;66064;50.226;14.344;2024-02-21T08:02:48;99921.47;;;8.12;82.61
77112;BME280;66064;50.226;14.344;2024-02-21T08:05:14;99911.75;;;8.12;82.97
77112;BME280;66064;50.226;14.344;2024-02-21T08:07:40;99909.25;;;8.18;81.32
77112;BME280;66064;50.226;14.344;2024-02-21T08:10:06;99891.47;;;8.14;81.98
77112;BME280;66064;50.226;14.344;2024-02-21T08:12:35;99889.31;;;8.32;81.89
77112;BME280;66064;50.226;14.344;2024-02-21T08:15:02;99901.72;;;8.33;80.84
77112;BME280;66064;50.226;14.344;2024-02-21T08:17:34;99894.34;;;8.22;81.38
77112;BME280;66064;50.226;14.344;2024-02-21T08:20:00;99898.47;;;8.44;81.71
77112;BME280;66064;50.226;14.344;2024-02-21T08:22:26;99903.38;;;8.66;81.11
77112;BME280;66064;50.226;14.344;2024-02-21T08:24:53;99889.53;;;8.79;80.61
77112;BME280;66064;50.226;14.344;2024-02-21T08:27:20;99892.69;;;8.63;81.39
77112;BME280;66064;50.226;14.344;2024-02-21T08:29:46;99891.81;;;8.62;82.29
77112;BME280;66064;50.226;14.344;2024-02-21T08:32:12;99887.19;;;8.54;82.63
77112;BME280;66064;50.226;14.344;2024-02-21T08:34:38;99882.88;;;8.57;83.58
77112;BME280;66064;50.226;14.344;2024-02-21T08:37:04;99872.41;;;8.65;82.89
77112;BME280;66064;50.226;14.344;2024-02-21T08:39:33;99862.72;;;8.67;83.03
77112;BME280;66064;50.226;14.344;2024-02-21T08:41:58;99868.31;;;8.79;83.31
77112;BME280;66064;50.226;14.344;2024-02-21T08:44:28;99865.56;;;8.74;81.73
77112;BME280;66064;50.226;14.344;2024-02-21T08:46:54;99861.34;;;8.84;82.30
77112;BME280;66064;50.226;14.344;2024-02-21T08:49:20;99864.88;;;8.83;81.20
77112;BME280;66064;50.226;14.344;2024-02-21T08:51:46;99870.16;;;8.83;82.68
77112;BME280;66064;50.226;14.344;2024-02-21T08:54:12;99884.72;;;9.00;81.80
77112;BME280;66064;50.226;14.344;2024-02-21T08:56:37;99883.84;;;9.01;81.12
77112;BME280;66064;50.226;14.344;2024-02-21T08:59:05;99890.09;;;9.03;82.00
77112;BME280;66064;50.226;14.344;2024-02-21T09:01:31;99887.03;;;8.85;81.88
77112;BME280;66064;50.226;14.344;2024-02-21T09:03:57;99889.69;;;8.85;81.98
77112;BME280;66064;50.226;14.344;2024-02-21T09:06:23;99860.66;;;8.94;83.03
77112;BME280;66064;50.226;14.344;2024-02-21T09:08:49;99880.34;;;9.02;82.55
77112;BME280;66064;50.226;14.344;2024-02-21T09:11:15;99881.66;;;8.82;82.52
77112;BME280;66064;50.226;14.344;2024-02-21T09:13:41;99871.22;;;8.90;82.20
77112;BME280;66064;50.226;14.344;2024-02-21T09:16:08;99867.91;;;9.01;80.77
77112;BME280;66064;50.226;14.344;2024-02-21T09:18:35;99856.78;;;9.19;80.92
77112;BME280;66064;50.226;14.344;2024-02-21T09:21:01;99854.13;;;9.64;79.05
77112;BME280;66064;50.226;14.344;2024-02-21T09:23:28;99868.78;;;9.89;76.94
77112;BME280;66064;50.226;14.344;2024-02-21T09:25:57;99869.66;;;9.43;77.67
77112;BME280;66064;50.226;14.344;2024-02-21T09:28:26;99855.91;;;9.65;77.86
77112;BME280;66064;50.226;14.344;2024-02-21T09:30:51;99856.66;;;9.58;77.78
77112;BME280;66064;50.226;14.344;2024-02-21T09:33:18;99851.84;;;9.84;76.59
77112;BME280;66064;50.226;14.344;2024-02-21T09:35:43;99852.09;;;10.50;73.62
77112;BME280;66064;50.226;14.344;2024-02-21T09:38:09;99845.38;;;11.48;70.23
77112;BME280;66064;50.226;14.344;2024-02-21T09:40:35;99846.97;;;12.17;66.82
77112;BME280;66064;50.226;14.344;2024-02-21T09:43:05;99838.94;;;14.00;61.70
77112;BME280;66064;50.226;14.344;2024-02-21T09:45:34;99832.69;;;14.00;60.22
77112;BME280;66064;50.226;14.344;2024-02-21T09:48:25;99804.09;;;16.34;53.70
77112;BME280;66064;50.226;14.344;2024-02-21T09:50:57;99784.59;;;16.10;53.16
77112;BME280;66064;50.226;14.344;2024-02-21T09:53:24;99785.78;;;17.46;51.07
77112;BME280;66064;50.226;14.344;2024-02-21T09:55:50;99775.03;;;18.06;51.15
77112;BME280;66064;50.226;14.344;2024-02-21T09:58:18;99785.41;;;14.52;56.85
77112;BME280;66064;50.226;14.344;2024-02-21T10:00:44;99805.94;;;13.73;60.22
77112;BME280;66064;50.226;14.344;2024-02-21T10:03:10;99803.00;;;12.98;61.26
77112;BME280;66064;50.226;14.344;2024-02-21T10:05:36;99787.72;;;12.65;62.16
77112;BME280;66064;50.226;14.344;2024-02-21T10:08:04;99808.75;;;12.16;63.87
77112;BME280;66064;50.226;14.344;2024-02-21T10:10:39;99825.06;;;11.59;66.22
77112;BME280;66064;50.226;14.344;2024-02-21T10:13:07;99812.81;;;11.76;67.14
77112;BME280;66064;50.226;14.344;2024-02-21T10:15:33;99808.00;;;12.40;65.11
77112;BME280;66064;50.226;14.344;2024-02-21T10:18:01;99808.63;;;13.77;61.42
77112;BME280;66064;50.226;14.344;2024-02-21T10:20:29;99804.13;;;13.73;60.18
77112;BME280;66064;50.226;14.344;2024-02-21T10:23:04;99797.63;;;12.92;62.70
77112;BME280;66064;50.226;14.344;2024-02-21T10:25:36;99783.63;;;13.87;58.95
77112;BME280;66064;50.226;14.344;2024-02-21T10:28:15;99780.56;;;17.37;50.75
77112;BME280;66064;50.226;14.344;2024-02-21T10:30:51;99774.16;;;19.02;46.18
77112;BME280;66064;50.226;14.344;2024-02-21T10:33:18;99775.88;;;18.62;45.45
77112;BME280;66064;50.226;14.344;2024-02-21T10:35:53;99761.56;;;19.03;44.77
77112;BME280;66064;50.226;14.344;2024-02-21T10:38:19;99776.81;;;19.47;43.00
77112;BME280;66064;50.226;14.344;2024-02-21T10:40:46;99768.69;;;19.05;43.92
77112;BME280;66064;50.226;14.344;2024-02-21T10:43:14;99775.56;;;16.21;51.85
77112;BME280;66064;50.226;14.344;2024-02-21T10:45:44;99777.97;;;16.48;51.22
77112;BME280;66064;50.226;14.344;2024-02-21T10:48:14;99786.19;;;16.33;51.64
77112;BME280;66064;50.226;14.344;2024-02-21T10:53:44;99763.97;;;13.29;57.31
77112;BME280;66064;50.226;14.344;2024-02-21T10:56:26;99788.00;;;13.37;58.42
77112;BME280;66064;50.226;14.344;2024-02-21T10:58:53;99785.31;;;13.24;59.36
77112;BME280;66064;50.226;14.344;2024-02-21T11:01:19;99777.19;;;12.99;60.69
77112;BME280;66064;50.226;14.344;2024-02-21T11:03:49;99780.84;;;13.22;61.29
77112;BME280;66064;50.226;14.344;2024-02-21T11:06:17;99794.22;;;13.32;60.06
77112;BME280;66064;50.226;14.344;2024-02-21T11:08:44;99788.97;;;13.57;60.44
77112;BME280;66064;50.226;14.344;2024-02-21T11:11:12;99780.72;;;12.94;61.21
77112;BME280;66064;50.226;14.344;2024-02-21T11:13:43;99778.94;;;13.01;60.84
77112;BME280;66064;50.226;14.344;2024-02-21T11:16:10;99773.25;;;12.31;61.79
77112;BME280;66064;50.226;14.344;2024-02-21T11:18:37;99771.69;;;12.71;60.53
77112;BME280;66064;50.226;14.344;2024-02-21T11:21:04;99743.38;;;13.08;60.14
77112;BME280;66064;50.226;14.344;2024-02-21T11:23:32;99751.50;;;13.49;59.46
77112;BME280;66064;50.226;14.344;2024-02-21T11:26:08;99735.47;;;13.45;59.21
77112;BME280;66064;50.226;14.344;2024-02-21T11:28:35;99738.94;;;13.12;59.67
77112;BME280;66064;50.226;14.344;2024-02-21T11:31:12;99718.41;;;12.99;60.97
77112;BME280;66064;50.226;14.344;2024-02-21T11:33:42;99723.81;;;14.31;58.11
77112;BME280;66064;50.226;14.344;2024-02-21T11:36:23;99724.81;;;13.63;59.08
77112;BME280;66064;50.226;14.344;2024-02-21T11:38:51;99709.59;;;13.97;58.54
77112;BME280;66064;50.226;14.344;2024-02-21T11:41:17;99700.69;;;13.25;58.79
77112;BME280;66064;50.226;14.344;2024-02-21T11:43:43;99701.56;;;13.19;58.44
77112;BME280;66064;50.226;14.344;2024-02-21T11:46:09;99706.00;;;13.20;60.45
77112;BME280;66064;50.226;14.344;2024-02-21T11:48:35;99700.53;;;12.87;59.42
77112;BME280;66064;50.226;14.344;2024-02-21T11:51:00;99696.09;;;12.86;59.67
77112;BME280;66064;50.226;14.344;2024-02-21T11:53:26;99690.81;;;13.04;60.11
77112;BME280;66064;50.226;14.344;2024-02-21T11:55:56;99686.31;;;14.49;58.57
77112;BME280;66064;50.226;14.344;2024-02-21T11:58:22;99673.47;;;17.59;49.41
77112;BME280;66064;50.226;14.344;2024-02-21T12:00:48;99664.47;;;16.31;50.33
77112;BME280;66064;50.226;14.344;2024-02-21T12:03:15;99684.41;;;14.85;55.28
77112;BME280;66064;50.226;14.344;2024-02-21T12:05:42;99677.44;;;14.41;56.62
77112;BME280;66064;50.226;14.344;2024-02-21T12:08:08;99675.78;;;13.59;56.92
77112;BME280;66064;50.226;14.344;2024-02-21T12:10:35;99670.41;;;13.70;58.37
77112;BME280;66064;50.226;14.344;2024-02-21T12:13:06;99657.03;;;13.27;58.95
77112;BME280;66064;50.226;14.344;2024-02-21T12:15:32;99662.41;;;13.47;59.01
77112;BME280;66064;50.226;14.344;2024-02-21T12:17:58;99657.94;;;13.61;61.29
77112;BME280;66064;50.226;14.344;2024-02-21T12:20:25;99656.13;;;13.86;57.82
77112;BME280;66064;50.226;14.344;2024-02-21T12:22:52;99651.69;;;13.79;59.17
77112;BME280;66064;50.226;14.344;2024-02-21T12:25:21;99649.03;;;13.58;58.42
77112;BME280;66064;50.226;14.344;2024-02-21T12:27:53;99636.53;;;13.80;59.35
77112;BME280;66064;50.226;14.344;2024-02-21T12:30:19;99629.41;;;13.70;59.54
77112;BME280;66064;50.226;14.344;2024-02-21T12:32:45;99626.75;;;13.44;60.67
77112;BME280;66064;50.226;14.344;2024-02-21T12:35:11;99621.34;;;13.92;60.52
77112;BME280;66064;50.226;14.344;2024-02-21T12:37:37;99617.84;;;13.57;59.80
77112;BME280;66064;50.226;14.344;2024-02-21T12:40:07;99606.19;;;13.94;59.36
77112;BME280;66064;50.226;14.344;2024-02-21T12:42:34;99581.78;;;14.67;57.67
77112;BME280;66064;50.226;14.344;2024-02-21T12:45:01;99566.84;;;15.52;55.12
77112;BME280;66064;50.226;14.344;2024-02-21T12:47:28;99570.53;;;16.25;52.73
77112;BME280;66064;50.226;14.344;2024-02-21T12:49:54;99555.41;;;16.19;52.82
77112;BME280;66064;50.226;14.344;2024-02-21T12:52:20;99564.81;;;16.54;51.25
77112;BME280;66064;50.226;14.344;2024-02-21T12:54:46;99558.13;;;16.15;52.44
77112;BME280;66064;50.226;14.344;2024-02-21T12:57:13;99549.47;;;16.63;51.37